sensor_id;sensor_type;location;lat;lon;timestamp;P1;durP1;ratioP1;P2;durP2;ratioP2
75628;SDS011;64213;46.452;16.994;2022-11-18T00:00:41;64.97;;;7.97;;
75628;SDS011;64213;46.452;16.994;2022-11-18T00:03:44;51.00;;;8.45;;
75628;SDS011;64213;46.452;16.994;2022-11-18T00:06:47;75.95;;;8.95;;
75628;SDS011;64213;46.452;16.994;2022-11-18T00:09:49;54.95;;;8.38;;
75628;SDS011;64213;46.452;16.994;2022-11-18T00:12:51;69.83;;;9.57;;
75628;SDS011;64213;46.452;16.994;2022-11-18T00:16:12;62.10;;;8.60;;
75628;SDS011;64213;46.452;16.994;2022-11-18T00:19:15;61.58;;;8.82;;
75628;SDS011;64213;46.452;16.994;2022-11-18T00:22:18;80.32;;;9.73;;
75628;SDS011;64213;46.452;16.994;2022-11-18T00:25:20;46.97;;;7.57;;
75628;SDS011;64213;46.452;16.994;2022-11-18T00:28:22;45.90;;;6.80;;
75628;SDS011;64213;46.452;16.994;2022-11-18T00:31:24;50.03;;;7.30;;
75628;SDS011;64213;46.452;16.994;2022-11-18T00:34:27;80.50;;;9.02;;
75628;SDS011;64213;46.452;16.994;2022-11-18T00:37:29;59.95;;;8.52;;
75628;SDS011;64213;46.452;16.994;2022-11-18T00:40:31;50.30;;;7.72;;
75628;SDS011;64213;46.452;16.994;2022-11-18T00:43:34;45.50;;;7.77;;
75628;SDS011;64213;46.452;16.994;2022-11-18T00:46:37;72.33;;;7.43;;
75628;SDS011;64213;46.452;16.994;2022-11-18T00:49:39;53.67;;;7.47;;
75628;SDS011;64213;46.452;16.994;2022-11-18T00:52:41;49.05;;;8.10;;
75628;SDS011;64213;46.452;16.994;2022-11-18T00:55:43;47.13;;;6.37;;
75628;SDS011;64213;46.452;16.994;2022-11-18T00:58:46;41.93;;;7.70;;
75628;SDS011;64213;46.452;16.994;2022-11-18T01:01:48;69.57;;;7.80;;
75628;SDS011;64213;46.452;16.994;2022-11-18T01:04:51;50.40;;;7.18;;
75628;SDS011;64213;46.452;16.994;2022-11-18T01:07:53;69.32;;;7.20;;
75628;SDS011;64213;46.452;16.994;2022-11-18T01:10:55;59.38;;;7.12;;
75628;SDS011;64213;46.452;16.994;2022-11-18T01:14:17;59.87;;;7.73;;
75628;SDS011;64213;46.452;16.994;2022-11-18T01:17:20;48.93;;;7.00;;
75628;SDS011;64213;46.452;16.994;2022-11-18T01:20:22;69.85;;;8.13;;
75628;SDS011;64213;46.452;16.994;2022-11-18T01:23:24;71.20;;;7.97;;
75628;SDS011;64213;46.452;16.994;2022-11-18T01:26:27;64.12;;;7.90;;
75628;SDS011;64213;46.452;16.994;2022-11-18T01:29:29;50.47;;;7.13;;
75628;SDS011;64213;46.452;16.994;2022-11-18T01:32:32;65.83;;;7.43;;
75628;SDS011;64213;46.452;16.994;2022-11-18T01:35:35;52.03;;;6.22;;
75628;SDS011;64213;46.452;16.994;2022-11-18T01:38:38;37.67;;;6.12;;
75628;SDS011;64213;46.452;16.994;2022-11-18T01:41:41;97.32;;;7.45;;
75628;SDS011;64213;46.452;16.994;2022-11-18T01:48:07;98.33;;;7.80;;
75628;SDS011;64213;46.452;16.994;2022-11-18T01:51:26;61.30;;;6.97;;
75628;SDS011;64213;46.452;16.994;2022-11-18T01:54:34;73.57;;;7.70;;
75628;SDS011;64213;46.452;16.994;2022-11-18T01:57:39;46.88;;;7.37;;
75628;SDS011;64213;46.452;16.994;2022-11-18T02:00:42;61.63;;;7.73;;
75628;SDS011;64213;46.452;16.994;2022-11-18T02:03:44;65.73;;;7.40;;
75628;SDS011;64213;46.452;16.994;2022-11-18T02:06:49;52.80;;;7.40;;
75628;SDS011;64213;46.452;16.994;2022-11-18T02:09:53;55.95;;;6.85;;
75628;SDS011;64213;46.452;16.994;2022-11-18T02:12:58;53.90;;;6.80;;
75628;SDS011;64213;46.452;16.994;2022-11-18T02:32:12;48.40;;;6.47;;
75628;SDS011;64213;46.452;16.994;2022-11-18T02:38:49;38.63;;;6.25;;
75628;SDS011;64213;46.452;16.994;2022-11-18T02:41:55;49.55;;;7.15;;
75628;SDS011;64213;46.452;16.994;2022-11-18T02:45:02;42.42;;;6.32;;
75628;SDS011;64213;46.452;16.994;2022-11-18T02:48:09;53.13;;;7.07;;
75628;SDS011;64213;46.452;16.994;2022-11-18T02:51:15;44.00;;;6.63;;
75628;SDS011;64213;46.452;16.994;2022-11-18T02:54:21;34.03;;;6.50;;
75628;SDS011;64213;46.452;16.994;2022-11-18T02:57:25;46.95;;;7.15;;
75628;SDS011;64213;46.452;16.994;2022-11-18T03:00:32;53.97;;;8.50;;
75628;SDS011;64213;46.452;16.994;2022-11-18T03:03:35;35.13;;;5.87;;
75628;SDS011;64213;46.452;16.994;2022-11-18T03:06:38;51.83;;;7.10;;
75628;SDS011;64213;46.452;16.994;2022-11-18T03:09:43;39.83;;;6.10;;
75628;SDS011;64213;46.452;16.994;2022-11-18T03:12:52;35.40;;;6.12;;
75628;SDS011;64213;46.452;16.994;2022-11-18T03:16:08;36.45;;;5.75;;
75628;SDS011;64213;46.452;16.994;2022-11-18T03:20:02;49.27;;;5.60;;
75628;SDS011;64213;46.452;16.994;2022-11-18T03:23:13;43.67;;;5.93;;
75628;SDS011;64213;46.452;16.994;2022-11-18T03:26:35;43.13;;;5.40;;
75628;SDS011;64213;46.452;16.994;2022-11-18T03:29:43;44.17;;;5.75;;
75628;SDS011;64213;46.452;16.994;2022-11-18T03:32:56;31.90;;;5.93;;
75628;SDS011;64213;46.452;16.994;2022-11-18T03:36:04;42.50;;;5.67;;
75628;SDS011;64213;46.452;16.994;2022-11-18T03:39:09;54.60;;;6.43;;
75628;SDS011;64213;46.452;16.994;2022-11-18T03:42:31;50.00;;;6.32;;
75628;SDS011;64213;46.452;16.994;2022-11-18T03:45:45;40.50;;;6.20;;
75628;SDS011;64213;46.452;16.994;2022-11-18T03:48:52;56.95;;;6.70;;
75628;SDS011;64213;46.452;16.994;2022-11-18T03:51:59;35.93;;;6.27;;
75628;SDS011;64213;46.452;16.994;2022-11-18T03:55:13;47.97;;;6.73;;
75628;SDS011;64213;46.452;16.994;2022-11-18T04:01:37;53.67;;;6.57;;
75628;SDS011;64213;46.452;16.994;2022-11-18T04:04:41;68.28;;;7.18;;
75628;SDS011;64213;46.452;16.994;2022-11-18T04:11:16;57.03;;;6.80;;
75628;SDS011;64213;46.452;16.994;2022-11-18T04:14:43;52.00;;;8.25;;
75628;SDS011;64213;46.452;16.994;2022-11-18T04:17:48;51.45;;;8.18;;
75628;SDS011;64213;46.452;16.994;2022-11-18T04:20:51;45.92;;;7.65;;
75628;SDS011;64213;46.452;16.994;2022-11-18T04:23:53;39.30;;;6.90;;
75628;SDS011;64213;46.452;16.994;2022-11-18T04:26:55;42.13;;;6.93;;
75628;SDS011;64213;46.452;16.994;2022-11-18T04:29:58;49.80;;;7.53;;
75628;SDS011;64213;46.452;16.994;2022-11-18T04:33:00;40.33;;;7.43;;
75628;SDS011;64213;46.452;16.994;2022-11-18T04:36:02;30.88;;;7.60;;
75628;SDS011;64213;46.452;16.994;2022-11-18T04:39:05;31.93;;;8.40;;
75628;SDS011;64213;46.452;16.994;2022-11-18T04:42:07;43.33;;;7.30;;
75628;SDS011;64213;46.452;16.994;2022-11-18T04:45:09;43.70;;;7.20;;
75628;SDS011;64213;46.452;16.994;2022-11-18T04:48:12;29.15;;;7.50;;
75628;SDS011;64213;46.452;16.994;2022-11-18T04:51:15;30.60;;;6.90;;
75628;SDS011;64213;46.452;16.994;2022-11-18T04:54:17;29.47;;;6.83;;
75628;SDS011;64213;46.452;16.994;2022-11-18T04:57:20;27.67;;;6.70;;
75628;SDS011;64213;46.452;16.994;2022-11-18T05:00:22;22.08;;;6.87;;
75628;SDS011;64213;46.452;16.994;2022-11-18T05:03:25;33.58;;;6.87;;
75628;SDS011;64213;46.452;16.994;2022-11-18T05:06:27;25.23;;;6.90;;
75628;SDS011;64213;46.452;16.994;2022-11-18T05:09:30;32.93;;;7.87;;
75628;SDS011;64213;46.452;16.994;2022-11-18T05:12:33;35.37;;;7.43;;
75628;SDS011;64213;46.452;16.994;2022-11-18T05:15:50;24.60;;;7.03;;
75628;SDS011;64213;46.452;16.994;2022-11-18T05:18:53;31.17;;;8.02;;
75628;SDS011;64213;46.452;16.994;2022-11-18T05:21:55;26.92;;;8.35;;
75628;SDS011;64213;46.452;16.994;2022-11-18T05:24:58;21.60;;;7.67;;
75628;SDS011;64213;46.452;16.994;2022-11-18T05:28:01;29.70;;;8.93;;
75628;SDS011;64213;46.452;16.994;2022-11-18T05:31:07;29.85;;;9.63;;
75628;SDS011;64213;46.452;16.994;2022-11-18T05:34:10;23.50;;;8.65;;
75628;SDS011;64213;46.452;16.994;2022-11-18T05:37:12;21.73;;;8.55;;
75628;SDS011;64213;46.452;16.994;2022-11-18T05:40:15;28.90;;;8.17;;
75628;SDS011;64213;46.452;16.994;2022-11-18T05:43:17;24.90;;;8.00;;
75628;SDS011;64213;46.452;16.994;2022-11-18T05:46:19;23.23;;;7.53;;
75628;SDS011;64213;46.452;16.994;2022-11-18T05:49:22;19.23;;;5.72;;
75628;SDS011;64213;46.452;16.994;2022-11-18T05:52:24;29.35;;;8.50;;
75628;SDS011;64213;46.452;16.994;2022-11-18T05:55:28;24.47;;;7.30;;
75628;SDS011;64213;46.452;16.994;2022-11-18T05:58:51;21.87;;;7.20;;
75628;SDS011;64213;46.452;16.994;2022-11-18T06:04:56;23.45;;;7.00;;
75628;SDS011;64213;46.452;16.994;2022-11-18T06:08:02;21.27;;;7.20;;
75628;SDS011;64213;46.452;16.994;2022-11-18T06:11:04;20.63;;;6.70;;
75628;SDS011;64213;46.452;16.994;2022-11-18T06:14:33;20.37;;;6.80;;
75628;SDS011;64213;46.452;16.994;2022-11-18T06:17:45;20.48;;;7.70;;
75628;SDS011;64213;46.452;16.994;2022-11-18T06:20:54;21.10;;;6.82;;
75628;SDS011;64213;46.452;16.994;2022-11-18T06:24:00;22.40;;;7.00;;
75628;SDS011;64213;46.452;16.994;2022-11-18T06:27:03;20.70;;;7.03;;
75628;SDS011;64213;46.452;16.994;2022-11-18T06:30:06;21.97;;;7.80;;
75628;SDS011;64213;46.452;16.994;2022-11-18T06:33:09;23.50;;;6.85;;
75628;SDS011;64213;46.452;16.994;2022-11-18T06:36:11;19.52;;;7.22;;
75628;SDS011;64213;46.452;16.994;2022-11-18T06:39:14;25.60;;;6.82;;
75628;SDS011;64213;46.452;16.994;2022-11-18T06:42:17;34.60;;;7.97;;
75628;SDS011;64213;46.452;16.994;2022-11-18T06:45:38;25.00;;;7.20;;
75628;SDS011;64213;46.452;16.994;2022-11-18T06:49:08;35.22;;;7.40;;
75628;SDS011;64213;46.452;16.994;2022-11-18T06:52:10;30.83;;;7.60;;
75628;SDS011;64213;46.452;16.994;2022-11-18T06:55:12;35.08;;;7.87;;
75628;SDS011;64213;46.452;16.994;2022-11-18T06:58:14;29.73;;;7.53;;
75628;SDS011;64213;46.452;16.994;2022-11-18T07:01:21;25.10;;;7.10;;
75628;SDS011;64213;46.452;16.994;2022-11-18T07:04:25;25.12;;;7.57;;
75628;SDS011;64213;46.452;16.994;2022-11-18T07:07:27;36.38;;;11.05;;
75628;SDS011;64213;46.452;16.994;2022-11-18T07:10:30;31.87;;;8.48;;
75628;SDS011;64213;46.452;16.994;2022-11-18T07:13:32;30.70;;;7.30;;
75628;SDS011;64213;46.452;16.994;2022-11-18T07:16:41;25.80;;;7.47;;
75628;SDS011;64213;46.452;16.994;2022-11-18T07:19:43;26.05;;;7.25;;
75628;SDS011;64213;46.452;16.994;2022-11-18T07:22:46;27.65;;;7.37;;
75628;SDS011;64213;46.452;16.994;2022-11-18T07:25:48;22.85;;;6.80;;
75628;SDS011;64213;46.452;16.994;2022-11-18T07:28:50;27.37;;;6.97;;
75628;SDS011;64213;46.452;16.994;2022-11-18T07:31:53;33.23;;;7.63;;
75628;SDS011;64213;46.452;16.994;2022-11-18T07:34:55;42.40;;;8.05;;
75628;SDS011;64213;46.452;16.994;2022-11-18T07:37:57;39.40;;;7.18;;
75628;SDS011;64213;46.452;16.994;2022-11-18T07:41:06;43.00;;;7.62;;
75628;SDS011;64213;46.452;16.994;2022-11-18T07:44:13;45.07;;;8.03;;
75628;SDS011;64213;46.452;16.994;2022-11-18T07:47:18;35.03;;;6.17;;
75628;SDS011;64213;46.452;16.994;2022-11-18T07:50:20;29.15;;;7.12;;
75628;SDS011;64213;46.452;16.994;2022-11-18T07:53:22;34.85;;;7.37;;
75628;SDS011;64213;46.452;16.994;2022-11-18T07:56:24;31.70;;;7.40;;
75628;SDS011;64213;46.452;16.994;2022-11-18T07:59:27;29.03;;;7.50;;
75628;SDS011;64213;46.452;16.994;2022-11-18T08:02:29;24.20;;;6.57;;
75628;SDS011;64213;46.452;16.994;2022-11-18T08:05:32;28.48;;;5.90;;
75628;SDS011;64213;46.452;16.994;2022-11-18T08:08:34;23.08;;;4.87;;
75628;SDS011;64213;46.452;16.994;2022-11-18T08:11:37;22.83;;;5.82;;
75628;SDS011;64213;46.452;16.994;2022-11-18T08:14:41;30.73;;;6.67;;
75628;SDS011;64213;46.452;16.994;2022-11-18T08:17:43;19.57;;;5.93;;
75628;SDS011;64213;46.452;16.994;2022-11-18T08:20:46;23.77;;;6.32;;
75628;SDS011;64213;46.452;16.994;2022-11-18T08:23:49;22.60;;;6.22;;
75628;SDS011;64213;46.452;16.994;2022-11-18T08:26:56;22.25;;;5.40;;
75628;SDS011;64213;46.452;16.994;2022-11-18T08:29:58;16.77;;;4.80;;
75628;SDS011;64213;46.452;16.994;2022-11-18T08:33:00;19.50;;;6.00;;
75628;SDS011;64213;46.452;16.994;2022-11-18T08:36:37;18.30;;;5.37;;
75628;SDS011;64213;46.452;16.994;2022-11-18T08:39:33;14.85;;;4.28;;
75628;SDS011;64213;46.452;16.994;2022-11-18T08:42:35;18.95;;;5.20;;
75628;SDS011;64213;46.452;16.994;2022-11-18T08:45:38;15.60;;;5.10;;
75628;SDS011;64213;46.452;16.994;2022-11-18T08:48:41;16.67;;;5.53;;
75628;SDS011;64213;46.452;16.994;2022-11-18T08:51:44;17.58;;;5.68;;
75628;SDS011;64213;46.452;16.994;2022-11-18T08:54:46;19.65;;;7.30;;
75628;SDS011;64213;46.452;16.994;2022-11-18T08:57:48;17.75;;;6.00;;
75628;SDS011;64213;46.452;16.994;2022-11-18T09:00:51;16.60;;;4.30;;
75628;SDS011;64213;46.452;16.994;2022-11-18T09:03:54;16.07;;;5.10;;
75628;SDS011;64213;46.452;16.994;2022-11-18T09:06:56;15.88;;;4.93;;
75628;SDS011;64213;46.452;16.994;2022-11-18T09:09:59;13.40;;;5.32;;
75628;SDS011;64213;46.452;16.994;2022-11-18T09:13:01;15.73;;;4.68;;
75628;SDS011;64213;46.452;16.994;2022-11-18T09:16:24;14.30;;;4.10;;
75628;SDS011;64213;46.452;16.994;2022-11-18T09:19:29;17.23;;;5.27;;
75628;SDS011;64213;46.452;16.994;2022-11-18T09:22:48;16.55;;;5.78;;
75628;SDS011;64213;46.452;16.994;2022-11-18T09:25:58;22.13;;;7.25;;
75628;SDS011;64213;46.452;16.994;2022-11-18T09:29:07;18.15;;;6.93;;
75628;SDS011;64213;46.452;16.994;2022-11-18T09:32:12;15.30;;;5.40;;
75628;SDS011;64213;46.452;16.994;2022-11-18T09:35:14;15.73;;;5.53;;
75628;SDS011;64213;46.452;16.994;2022-11-18T09:38:17;14.93;;;5.18;;
75628;SDS011;64213;46.452;16.994;2022-11-18T09:47:59;13.57;;;4.27;;
75628;SDS011;64213;46.452;16.994;2022-11-18T09:51:10;10.00;;;3.50;;
75628;SDS011;64213;46.452;16.994;2022-11-18T09:54:33;13.60;;;4.53;;
75628;SDS011;64213;46.452;16.994;2022-11-18T09:57:37;12.82;;;4.62;;
75628;SDS011;64213;46.452;16.994;2022-11-18T10:00:42;10.05;;;3.33;;
75628;SDS011;64213;46.452;16.994;2022-11-18T10:03:45;13.30;;;3.43;;
75628;SDS011;64213;46.452;16.994;2022-11-18T10:06:48;11.57;;;3.77;;
75628;SDS011;64213;46.452;16.994;2022-11-18T10:09:51;13.13;;;4.70;;
75628;SDS011;64213;46.452;16.994;2022-11-18T10:13:00;14.50;;;5.40;;
75628;SDS011;64213;46.452;16.994;2022-11-18T10:25:55;10.48;;;3.75;;
75628;SDS011;64213;46.452;16.994;2022-11-18T10:29:01;9.43;;;3.33;;
75628;SDS011;64213;46.452;16.994;2022-11-18T10:32:10;8.23;;;2.37;;
75628;SDS011;64213;46.452;16.994;2022-11-18T10:35:26;8.40;;;2.27;;
75628;SDS011;64213;46.452;16.994;2022-11-18T10:38:31;7.53;;;2.23;;
75628;SDS011;64213;46.452;16.994;2022-11-18T10:41:37;5.57;;;0.90;;
75628;SDS011;64213;46.452;16.994;2022-11-18T10:44:42;5.93;;;1.40;;
75628;SDS011;64213;46.452;16.994;2022-11-18T10:47:55;6.53;;;1.12;;
75628;SDS011;64213;46.452;16.994;2022-11-18T10:51:18;6.77;;;1.80;;
75628;SDS011;64213;46.452;16.994;2022-11-18T10:54:25;6.57;;;1.50;;
75628;SDS011;64213;46.452;16.994;2022-11-18T10:57:27;6.18;;;1.50;;
75628;SDS011;64213;46.452;16.994;2022-11-18T11:00:37;7.80;;;2.15;;
75628;SDS011;64213;46.452;16.994;2022-11-18T11:03:43;8.43;;;2.75;;
75628;SDS011;64213;46.452;16.994;2022-11-18T11:07:12;8.33;;;2.60;;
75628;SDS011;64213;46.452;16.994;2022-11-18T11:10:24;5.93;;;1.90;;
75628;SDS011;64213;46.452;16.994;2022-11-18T11:13:26;9.70;;;3.00;;
75628;SDS011;64213;46.452;16.994;2022-11-18T11:16:33;9.82;;;3.65;;
75628;SDS011;64213;46.452;16.994;2022-11-18T11:19:44;8.32;;;2.87;;
75628;SDS011;64213;46.452;16.994;2022-11-18T11:23:09;9.70;;;3.27;;
75628;SDS011;64213;46.452;16.994;2022-11-18T11:30:16;10.63;;;3.70;;
75628;SDS011;64213;46.452;16.994;2022-11-18T11:33:22;15.15;;;4.10;;
75628;SDS011;64213;46.452;16.994;2022-11-18T11:43:31;10.53;;;3.23;;
75628;SDS011;64213;46.452;16.994;2022-11-18T11:46:45;13.15;;;4.72;;
75628;SDS011;64213;46.452;16.994;2022-11-18T11:56:50;15.03;;;4.97;;
75628;SDS011;64213;46.452;16.994;2022-11-18T12:00:03;15.97;;;5.50;;
75628;SDS011;64213;46.452;16.994;2022-11-18T12:06:21;11.48;;;4.15;;
75628;SDS011;64213;46.452;16.994;2022-11-18T12:15:59;13.10;;;4.27;;
75628;SDS011;64213;46.452;16.994;2022-11-18T12:22:17;14.82;;;4.97;;
75628;SDS011;64213;46.452;16.994;2022-11-18T12:28:47;15.73;;;5.97;;
75628;SDS011;64213;46.452;16.994;2022-11-18T12:31:53;16.90;;;5.77;;
75628;SDS011;64213;46.452;16.994;2022-11-18T12:38:28;13.65;;;4.60;;
75628;SDS011;64213;46.452;16.994;2022-11-18T12:44:59;16.30;;;5.70;;
75628;SDS011;64213;46.452;16.994;2022-11-18T12:48:40;17.43;;;5.60;;
75628;SDS011;64213;46.452;16.994;2022-11-18T12:51:43;14.07;;;5.60;;
75628;SDS011;64213;46.452;16.994;2022-11-18T12:54:46;14.50;;;4.75;;
75628;SDS011;64213;46.452;16.994;2022-11-18T12:57:49;16.55;;;5.43;;
75628;SDS011;64213;46.452;16.994;2022-11-18T13:01:09;14.73;;;5.10;;
75628;SDS011;64213;46.452;16.994;2022-11-18T13:04:14;15.30;;;5.47;;
75628;SDS011;64213;46.452;16.994;2022-11-18T13:07:19;15.48;;;5.40;;
75628;SDS011;64213;46.452;16.994;2022-11-18T13:13:46;16.12;;;6.03;;
75628;SDS011;64213;46.452;16.994;2022-11-18T13:16:48;15.47;;;5.63;;
75628;SDS011;64213;46.452;16.994;2022-11-18T13:23:28;18.73;;;6.28;;
75628;SDS011;64213;46.452;16.994;2022-11-18T13:26:54;16.15;;;6.90;;
75628;SDS011;64213;46.452;16.994;2022-11-18T13:30:05;15.98;;;6.00;;
75628;SDS011;64213;46.452;16.994;2022-11-18T13:33:12;16.20;;;5.93;;
75628;SDS011;64213;46.452;16.994;2022-11-18T13:39:23;16.73;;;6.20;;
75628;SDS011;64213;46.452;16.994;2022-11-18T13:42:28;14.82;;;5.87;;
75628;SDS011;64213;46.452;16.994;2022-11-18T13:45:31;17.95;;;6.30;;
75628;SDS011;64213;46.452;16.994;2022-11-18T13:48:34;14.97;;;6.33;;
75628;SDS011;64213;46.452;16.994;2022-11-18T13:51:41;16.90;;;6.37;;
75628;SDS011;64213;46.452;16.994;2022-11-18T13:54:44;16.52;;;5.85;;
75628;SDS011;64213;46.452;16.994;2022-11-18T13:57:48;16.98;;;6.80;;
75628;SDS011;64213;46.452;16.994;2022-11-18T14:04:26;14.57;;;6.27;;
75628;SDS011;64213;46.452;16.994;2022-11-18T14:07:31;16.63;;;6.37;;
75628;SDS011;64213;46.452;16.994;2022-11-18T14:10:43;15.68;;;6.40;;
75628;SDS011;64213;46.452;16.994;2022-11-18T14:13:50;15.88;;;6.28;;
75628;SDS011;64213;46.452;16.994;2022-11-18T14:17:02;14.18;;;5.37;;
75628;SDS011;64213;46.452;16.994;2022-11-18T14:20:24;16.70;;;6.80;;
75628;SDS011;64213;46.452;16.994;2022-11-18T14:23:28;15.03;;;6.00;;
75628;SDS011;64213;46.452;16.994;2022-11-18T14:26:36;17.60;;;5.97;;
75628;SDS011;64213;46.452;16.994;2022-11-18T14:29:47;15.30;;;6.62;;
75628;SDS011;64213;46.452;16.994;2022-11-18T14:33:09;15.18;;;6.07;;
75628;SDS011;64213;46.452;16.994;2022-11-18T14:36:13;15.70;;;6.37;;
75628;SDS011;64213;46.452;16.994;2022-11-18T14:39:22;16.87;;;5.47;;
75628;SDS011;64213;46.452;16.994;2022-11-18T14:42:27;14.87;;;6.50;;
75628;SDS011;64213;46.452;16.994;2022-11-18T14:45:30;14.90;;;6.00;;
75628;SDS011;64213;46.452;16.994;2022-11-18T14:48:32;18.92;;;6.37;;
75628;SDS011;64213;46.452;16.994;2022-11-18T14:51:35;17.23;;;5.90;;
75628;SDS011;64213;46.452;16.994;2022-11-18T14:54:37;16.47;;;6.87;;
75628;SDS011;64213;46.452;16.994;2022-11-18T14:57:39;16.60;;;7.00;;
75628;SDS011;64213;46.452;16.994;2022-11-18T15:00:42;19.23;;;7.43;;
75628;SDS011;64213;46.452;16.994;2022-11-18T15:03:50;18.12;;;7.53;;
75628;SDS011;64213;46.452;16.994;2022-11-18T15:06:52;19.23;;;7.80;;
75628;SDS011;64213;46.452;16.994;2022-11-18T15:09:55;17.83;;;8.20;;
75628;SDS011;64213;46.452;16.994;2022-11-18T15:12:58;15.77;;;7.22;;
75628;SDS011;64213;46.452;16.994;2022-11-18T15:16:05;17.42;;;7.45;;
75628;SDS011;64213;46.452;16.994;2022-11-18T15:19:18;17.42;;;8.00;;
75628;SDS011;64213;46.452;16.994;2022-11-18T15:22:20;18.17;;;7.83;;
75628;SDS011;64213;46.452;16.994;2022-11-18T15:25:22;19.30;;;7.53;;
75628;SDS011;64213;46.452;16.994;2022-11-18T15:28:24;18.05;;;7.53;;
75628;SDS011;64213;46.452;16.994;2022-11-18T15:31:27;16.48;;;7.15;;
75628;SDS011;64213;46.452;16.994;2022-11-18T15:34:29;16.00;;;6.10;;
75628;SDS011;64213;46.452;16.994;2022-11-18T15:37:31;16.60;;;6.00;;
75628;SDS011;64213;46.452;16.994;2022-11-18T15:40:33;14.30;;;6.10;;
75628;SDS011;64213;46.452;16.994;2022-11-18T15:43:36;14.95;;;6.15;;
75628;SDS011;64213;46.452;16.994;2022-11-18T15:46:38;15.00;;;5.70;;
75628;SDS011;64213;46.452;16.994;2022-11-18T15:49:41;15.80;;;6.03;;
75628;SDS011;64213;46.452;16.994;2022-11-18T15:52:46;14.00;;;5.77;;
75628;SDS011;64213;46.452;16.994;2022-11-18T15:55:50;14.07;;;6.10;;
75628;SDS011;64213;46.452;16.994;2022-11-18T15:58:59;14.13;;;6.20;;
75628;SDS011;64213;46.452;16.994;2022-11-18T16:02:04;18.23;;;7.62;;
75628;SDS011;64213;46.452;16.994;2022-11-18T16:05:07;17.30;;;6.97;;
75628;SDS011;64213;46.452;16.994;2022-11-18T16:08:10;17.37;;;7.50;;
75628;SDS011;64213;46.452;16.994;2022-11-18T16:11:13;20.73;;;8.47;;
75628;SDS011;64213;46.452;16.994;2022-11-18T16:14:35;19.33;;;8.75;;
75628;SDS011;64213;46.452;16.994;2022-11-18T16:17:39;22.70;;;10.55;;
75628;SDS011;64213;46.452;16.994;2022-11-18T16:20:41;24.77;;;11.32;;
75628;SDS011;64213;46.452;16.994;2022-11-18T16:23:43;22.67;;;10.07;;
75628;SDS011;64213;46.452;16.994;2022-11-18T16:26:46;24.40;;;11.50;;
75628;SDS011;64213;46.452;16.994;2022-11-18T16:29:49;24.70;;;11.32;;
75628;SDS011;64213;46.452;16.994;2022-11-18T16:32:52;23.12;;;10.80;;
75628;SDS011;64213;46.452;16.994;2022-11-18T16:35:54;25.27;;;11.73;;
75628;SDS011;64213;46.452;16.994;2022-11-18T16:38:57;20.47;;;10.47;;
75628;SDS011;64213;46.452;16.994;2022-11-18T16:42:00;22.30;;;10.40;;
75628;SDS011;64213;46.452;16.994;2022-11-18T16:45:09;18.17;;;8.25;;
75628;SDS011;64213;46.452;16.994;2022-11-18T16:48:11;18.30;;;8.45;;
75628;SDS011;64213;46.452;16.994;2022-11-18T16:51:18;19.45;;;9.10;;
75628;SDS011;64213;46.452;16.994;2022-11-18T16:54:22;20.97;;;9.60;;
75628;SDS011;64213;46.452;16.994;2022-11-18T16:57:28;23.87;;;9.50;;
75628;SDS011;64213;46.452;16.994;2022-11-18T17:00:32;23.62;;;9.70;;
75628;SDS011;64213;46.452;16.994;2022-11-18T17:03:54;19.65;;;8.75;;
75628;SDS011;64213;46.452;16.994;2022-11-18T17:06:57;18.45;;;8.68;;
75628;SDS011;64213;46.452;16.994;2022-11-18T17:10:04;21.93;;;10.43;;
75628;SDS011;64213;46.452;16.994;2022-11-18T17:13:06;20.97;;;8.70;;
75628;SDS011;64213;46.452;16.994;2022-11-18T17:16:16;25.60;;;10.85;;
75628;SDS011;64213;46.452;16.994;2022-11-18T17:19:20;22.50;;;9.48;;
75628;SDS011;64213;46.452;16.994;2022-11-18T17:22:25;22.52;;;10.50;;
75628;SDS011;64213;46.452;16.994;2022-11-18T17:25:27;25.70;;;10.57;;
75628;SDS011;64213;46.452;16.994;2022-11-18T17:28:30;26.43;;;10.47;;
75628;SDS011;64213;46.452;16.994;2022-11-18T17:31:33;23.50;;;10.40;;
75628;SDS011;64213;46.452;16.994;2022-11-18T17:34:36;24.52;;;10.50;;
75628;SDS011;64213;46.452;16.994;2022-11-18T17:37:38;21.25;;;9.15;;
75628;SDS011;64213;46.452;16.994;2022-11-18T17:40:40;23.23;;;9.70;;
75628;SDS011;64213;46.452;16.994;2022-11-18T17:43:43;25.20;;;10.33;;
75628;SDS011;64213;46.452;16.994;2022-11-18T17:46:45;25.60;;;10.65;;
75628;SDS011;64213;46.452;16.994;2022-11-18T17:49:48;23.50;;;9.30;;
75628;SDS011;64213;46.452;16.994;2022-11-18T17:52:52;22.80;;;10.93;;
75628;SDS011;64213;46.452;16.994;2022-11-18T17:55:54;22.73;;;10.07;;
75628;SDS011;64213;46.452;16.994;2022-11-18T17:59:05;22.07;;;10.60;;
75628;SDS011;64213;46.452;16.994;2022-11-18T18:02:08;20.85;;;9.65;;
75628;SDS011;64213;46.452;16.994;2022-11-18T18:05:12;23.70;;;11.25;;
75628;SDS011;64213;46.452;16.994;2022-11-18T18:08:16;22.70;;;10.85;;
75628;SDS011;64213;46.452;16.994;2022-11-18T18:11:18;21.80;;;10.13;;
75628;SDS011;64213;46.452;16.994;2022-11-18T18:14:21;21.03;;;9.60;;
75628;SDS011;64213;46.452;16.994;2022-11-18T18:17:23;20.95;;;10.70;;
75628;SDS011;64213;46.452;16.994;2022-11-18T18:20:26;23.12;;;10.80;;
75628;SDS011;64213;46.452;16.994;2022-11-18T18:23:29;24.63;;;10.98;;
75628;SDS011;64213;46.452;16.994;2022-11-18T18:26:33;24.50;;;11.63;;
75628;SDS011;64213;46.452;16.994;2022-11-18T18:29:35;25.03;;;11.33;;
75628;SDS011;64213;46.452;16.994;2022-11-18T18:32:38;23.12;;;10.43;;
75628;SDS011;64213;46.452;16.994;2022-11-18T18:35:40;24.80;;;10.73;;
75628;SDS011;64213;46.452;16.994;2022-11-18T18:38:43;21.83;;;10.27;;
75628;SDS011;64213;46.452;16.994;2022-11-18T18:41:47;23.50;;;10.37;;
75628;SDS011;64213;46.452;16.994;2022-11-18T18:44:49;23.63;;;10.73;;
75628;SDS011;64213;46.452;16.994;2022-11-18T18:48:09;35.80;;;16.05;;
75628;SDS011;64213;46.452;16.994;2022-11-18T18:51:13;26.02;;;11.98;;
75628;SDS011;64213;46.452;16.994;2022-11-18T18:54:16;26.45;;;13.70;;
75628;SDS011;64213;46.452;16.994;2022-11-18T18:57:21;25.97;;;11.97;;
75628;SDS011;64213;46.452;16.994;2022-11-18T19:00:24;29.53;;;11.60;;
75628;SDS011;64213;46.452;16.994;2022-11-18T19:03:26;25.20;;;11.75;;
75628;SDS011;64213;46.452;16.994;2022-11-18T19:06:30;24.77;;;11.40;;
75628;SDS011;64213;46.452;16.994;2022-11-18T19:09:57;21.87;;;9.90;;
75628;SDS011;64213;46.452;16.994;2022-11-18T19:12:59;28.50;;;14.70;;
75628;SDS011;64213;46.452;16.994;2022-11-18T19:16:03;29.87;;;14.37;;
75628;SDS011;64213;46.452;16.994;2022-11-18T19:19:07;33.50;;;16.25;;
75628;SDS011;64213;46.452;16.994;2022-11-18T19:22:13;32.95;;;13.25;;
75628;SDS011;64213;46.452;16.994;2022-11-18T19:25:16;45.42;;;17.73;;
75628;SDS011;64213;46.452;16.994;2022-11-18T19:28:19;30.50;;;12.80;;
75628;SDS011;64213;46.452;16.994;2022-11-18T19:31:22;28.97;;;12.40;;
75628;SDS011;64213;46.452;16.994;2022-11-18T19:34:25;29.33;;;12.43;;
75628;SDS011;64213;46.452;16.994;2022-11-18T19:37:29;31.75;;;12.68;;
75628;SDS011;64213;46.452;16.994;2022-11-18T19:40:33;29.05;;;11.77;;
75628;SDS011;64213;46.452;16.994;2022-11-18T19:43:37;28.83;;;12.67;;
75628;SDS011;64213;46.452;16.994;2022-11-18T19:46:40;28.17;;;12.93;;
75628;SDS011;64213;46.452;16.994;2022-11-18T19:49:43;29.80;;;14.15;;